Time;durP1;ratioP1;P1;durP2;ratioP2;P2;SDS_P1;SDS_P2;PMS_P1;PMS_P2;Temp;Humidity;BMP_temperature;BMP_pressure;BME280_temperature;BME280_humidity;BME280_pressure;Samples;Min_cycle;Max_cycle;Signal;HPM_P1;HPM_P2
2022/09/23 00:01:01;;;;;;;8.77;5.15;;;13.00;80.20;;;;;;5073836;28;20082;-83
2022/09/23 00:03:29;;;;;;;11.65;4.95;;;13.00;80.50;;;;;;5073626;28;20042;-82
2022/09/23 00:06:12;;;;;;;11.40;5.35;;;13.00;80.50;;;;;;5073343;28;20059;-83
2022/09/23 00:08:38;;;;;;;9.30;5.25;;;12.90;80.60;;;;;;5072678;28;20023;-82
2022/09/23 00:11:10;;;;;;;9.15;5.43;;;12.90;80.70;;;;;;5073085;28;20044;-83
2022/09/23 00:13:38;;;;;;;10.93;6.15;;;12.80;80.90;;;;;;5073023;28;20009;-82
2022/09/23 00:16:07;;;;;;;12.02;6.03;;;12.90;81.10;;;;;;5074301;28;20024;-83
2022/09/23 00:18:33;;;;;;;8.30;4.95;;;12.80;81.20;;;;;;5073374;28;20020;-82
2022/09/23 00:21:04;;;;;;;12.30;6.38;;;12.80;81.40;;;;;;5072889;28;20104;-82
2022/09/23 00:23:30;;;;;;;10.27;6.10;;;12.80;81.60;;;;;;5073255;28;20031;-81
2022/09/23 00:26:01;;;;;;;9.82;5.38;;;12.70;81.60;;;;;;5056334;28;20112;-83
2022/09/23 00:28:27;;;;;;;9.20;5.43;;;12.70;81.80;;;;;;5074436;28;20020;-82
2022/09/23 00:30:53;;;;;;;15.30;5.93;;;12.70;81.90;;;;;;5075856;28;20081;-83
2022/09/23 00:33:19;;;;;;;13.57;6.03;;;12.60;82.10;;;;;;5076343;28;20024;-82
2022/09/23 00:35:46;;;;;;;9.05;6.07;;;12.60;82.30;;;;;;5087458;28;20028;-82
2022/09/23 00:38:13;;;;;;;9.13;6.25;;;12.60;82.50;;;;;;5070963;28;20352;-82
2022/09/23 00:40:42;;;;;;;10.77;6.45;;;12.50;82.70;;;;;;5094095;28;20030;-82
2022/09/23 00:43:12;;;;;;;11.05;6.70;;;12.50;82.90;;;;;;5075986;28;20024;-82
2022/09/23 00:45:39;;;;;;;11.50;6.97;;;12.50;83.00;;;;;;5094400;28;20016;-82
2022/09/23 00:48:10;;;;;;;10.13;5.85;;;12.50;83.10;;;;;;5092718;28;20026;-82
2022/09/23 00:50:40;;;;;;;10.60;6.07;;;12.50;83.20;;;;;;5093605;28;20012;-82
2022/09/23 00:53:10;;;;;;;8.90;5.55;;;12.50;83.90;;;;;;5093990;28;20020;-82
2022/09/23 00:55:38;;;;;;;9.25;5.35;;;12.50;83.40;;;;;;5092603;28;20012;-82
2022/09/23 00:58:08;;;;;;;12.13;6.43;;;12.40;83.50;;;;;;5092924;28;20049;-82
2022/09/23 01:00:34;;;;;;;11.98;6.47;;;12.40;83.70;;;;;;5092663;28;20035;-82
2022/09/23 01:03:00;;;;;;;10.13;6.50;;;12.40;83.80;;;;;;5094337;28;20024;-82
2022/09/23 01:05:26;;;;;;;11.02;6.95;;;12.40;83.80;;;;;;5092504;28;20019;-82
2022/09/23 01:07:56;;;;;;;9.13;6.00;;;12.40;84.00;;;;;;5075995;28;20107;-83
2022/09/23 01:10:23;;;;;;;13.38;7.47;;;12.40;84.00;;;;;;5092391;28;20035;-82
2022/09/23 01:13:06;;;;;;;11.98;6.60;;;12.30;84.10;;;;;;5092147;28;20036;-82
2022/09/23 01:15:56;;;;;;;15.13;6.57;;;12.30;84.20;;;;;;5092357;28;20027;-81
2022/09/23 01:18:36;;;;;;;10.57;6.72;;;12.30;84.30;;;;;;5092326;28;20035;-81
2022/09/23 01:21:47;;;;;;;11.07;6.13;;;12.30;84.40;;;;;;5092430;28;20456;-81
2022/09/23 01:24:37;;;;;;;10.95;6.57;;;12.30;84.50;;;;;;5092472;28;20423;-81
2022/09/23 01:27:43;;;;;;;12.90;7.00;;;12.20;84.50;;;;;;5092196;28;20031;-82
2022/09/23 01:30:15;;;;;;;12.43;7.30;;;12.20;84.50;;;;;;5092270;28;20016;-82
2022/09/23 01:32:51;;;;;;;11.88;7.10;;;12.20;84.50;;;;;;5091859;28;20079;-82
2022/09/23 01:35:33;;;;;;;13.10;7.28;;;12.20;84.50;;;;;;5092418;28;20152;-82
2022/09/23 01:38:19;;;;;;;12.85;7.65;;;12.20;84.60;;;;;;5092389;28;20130;-82
2022/09/23 01:40:53;;;;;;;10.50;6.60;;;12.10;84.60;;;;;;5091443;28;20024;-84
2022/09/23 01:43:32;;;;;;;11.67;7.17;;;12.10;84.50;;;;;;5092163;28;20119;-82
2022/09/23 01:46:00;;;;;;;10.77;7.20;;;12.10;84.50;;;;;;5093244;28;20014;-81
2022/09/23 01:48:34;;;;;;;12.10;6.90;;;12.10;84.50;;;;;;5093219;28;20019;-81
2022/09/23 01:51:25;;;;;;;12.00;7.55;;;12.00;84.40;;;;;;5092057;28;20059;-81
2022/09/23 01:54:14;;;;;;;13.53;7.67;;;12.00;84.50;;;;;;5091995;28;20110;-82
2022/09/23 01:57:00;;;;;;;11.40;7.05;;;12.00;84.50;;;;;;5091883;28;20101;-82
2022/09/23 01:59:46;;;;;;;11.60;7.17;;;11.90;84.40;;;;;;5091786;28;20063;-81
2022/09/23 02:02:27;;;;;;;10.73;7.17;;;12.00;84.50;;;;;;5091913;28;20125;-81
2022/09/23 02:05:11;;;;;;;11.05;7.15;;;11.90;84.50;;;;;;5091980;28;20016;-81
2022/09/23 02:07:59;;;;;;;9.38;6.68;;;11.90;84.60;;;;;;5091533;28;20038;-81
2022/09/23 02:10:34;;;;;;;11.40;7.30;;;11.90;84.70;;;;;;5091780;28;20020;-82
2022/09/23 02:13:06;;;;;;;10.87;7.03;;;11.80;84.60;;;;;;5091676;28;20028;-82
2022/09/23 02:15:38;;;;;;;10.83;7.30;;;11.90;84.70;;;;;;5091637;28;20470;-82
2022/09/23 02:18:20;;;;;;;11.45;7.55;;;11.80;84.60;;;;;;5091425;28;20044;-82
2022/09/23 02:20:49;;;;;;;12.52;7.80;;;11.80;84.80;;;;;;5092903;28;20486;-82
2022/09/23 02:23:30;;;;;;;12.63;7.57;;;11.80;84.90;;;;;;5092318;28;20024;-82
2022/09/23 02:26:29;;;;;;;12.00;7.10;;;11.80;85.00;;;;;;5092817;28;20024;-82
2022/09/23 02:29:11;;;;;;;12.57;7.27;;;11.80;85.00;;;;;;5091445;28;20341;-81
2022/09/23 02:31:45;;;;;;;12.03;7.23;;;11.80;85.00;;;;;;5091443;28;20068;-82
2022/09/23 02:34:14;;;;;;;12.45;7.47;;;11.80;85.10;;;;;;5097253;28;20162;-81
2022/09/23 02:37:09;;;;;;;13.30;7.77;;;11.80;85.20;;;;;;5095669;28;20024;-82
2022/09/23 02:40:08;;;;;;;10.73;7.43;;;11.80;85.40;;;;;;5095738;28;20063;-81
2022/09/23 02:42:46;;;;;;;11.67;7.40;;;11.80;85.40;;;;;;5094747;28;20089;-82
2022/09/23 02:45:12;;;;;;;13.27;7.47;;;11.80;85.40;;;;;;5095201;28;20056;-82
2022/09/23 02:47:43;;;;;;;12.23;7.77;;;11.80;85.50;;;;;;5078806;28;20035;-81
2022/09/23 02:50:09;;;;;;;12.47;7.73;;;11.70;85.50;;;;;;5095163;28;20016;-81
2022/09/23 02:52:37;;;;;;;12.07;8.40;;;11.80;85.70;;;;;;5095196;28;20036;-82
2022/09/23 02:55:05;;;;;;;13.77;7.35;;;11.80;85.70;;;;;;5096489;28;20034;-81
2022/09/23 02:57:31;;;;;;;11.88;7.82;;;11.80;85.80;;;;;;5078437;28;20059;-81
2022/09/23 02:59:57;;;;;;;14.40;7.70;;;11.70;85.80;;;;;;5078014;28;20074;-81
2022/09/23 03:02:43;;;;;;;10.33;6.83;;;11.80;85.90;;;;;;5094835;28;20111;-81
2022/09/23 03:05:26;;;;;;;10.33;7.17;;;11.70;85.90;;;;;;5094936;28;20020;-81
2022/09/23 03:08:09;;;;;;;9.77;6.80;;;11.70;86.00;;;;;;5095869;28;20028;-80
2022/09/23 03:10:54;;;;;;;10.93;6.78;;;11.70;86.00;;;;;;5094850;28;20020;-81
2022/09/23 03:14:06;;;;;;;12.27;7.33;;;11.70;86.10;;;;;;5094521;28;20026;-81
2022/09/23 03:16:43;;;;;;;13.93;6.72;;;11.60;86.10;;;;;;5061915;28;20048;-81
2022/09/23 03:19:35;;;;;;;11.50;6.90;;;11.60;86.00;;;;;;5094996;28;20372;-82
2022/09/23 03:22:17;;;;;;;13.07;7.60;;;11.60;86.10;;;;;;5093580;28;20097;-83
2022/09/23 03:24:44;;;;;;;13.37;7.60;;;11.60;86.10;;;;;;5095669;28;20016;-83
2022/09/23 03:27:17;;;;;;;9.40;6.63;;;11.50;86.10;;;;;;5095697;28;20020;-82
2022/09/23 03:29:47;;;;;;;10.57;6.93;;;11.50;86.30;;;;;;5094775;28;20020;-82
2022/09/23 03:32:18;;;;;;;11.50;6.73;;;11.50;86.40;;;;;;5093968;28;20044;-83
2022/09/23 03:34:48;;;;;;;11.10;7.47;;;11.50;86.50;;;;;;5094236;28;20012;-82
2022/09/23 03:37:52;;;;;;;12.57;6.87;;;11.50;86.60;;;;;;5094220;28;20391;-81
2022/09/23 03:40:30;;;;;;;10.30;6.80;;;11.40;86.80;;;;;;5077353;28;20119;-83
2022/09/23 03:42:57;;;;;;;10.90;7.20;;;11.40;86.90;;;;;;5094905;28;20028;-82
2022/09/23 03:45:28;;;;;;;11.13;7.80;;;11.40;87.00;;;;;;5071049;28;20024;-83
2022/09/23 03:47:54;;;;;;;11.53;7.70;;;11.30;87.00;;;;;;5095102;28;20054;-83
2022/09/23 03:50:20;;;;;;;11.57;7.67;;;11.30;87.10;;;;;;5094207;28;20066;-82
2022/09/23 03:52:46;;;;;;;11.50;7.77;;;11.30;87.30;;;;;;5077069;28;20455;-82
2022/09/23 03:55:12;;;;;;;11.77;6.87;;;11.30;87.40;;;;;;5077804;28;20028;-81
2022/09/23 03:57:37;;;;;;;11.63;7.10;;;11.30;87.50;;;;;;5094310;28;20348;-81
2022/09/23 04:00:05;;;;;;;12.93;7.83;;;11.30;87.70;;;;;;5093871;28;20028;-81
2022/09/23 04:02:31;;;;;;;11.83;7.67;;;11.20;87.80;;;;;;5094053;28;20042;-81
2022/09/23 04:04:57;;;;;;;11.63;7.37;;;11.20;87.80;;;;;;5093402;28;20459;-82
2022/09/23 04:07:23;;;;;;;17.23;7.73;;;11.20;87.90;;;;;;5077104;28;20020;-82
2022/09/23 04:09:48;;;;;;;10.53;7.67;;;11.20;88.00;;;;;;5069923;28;20020;-82
2022/09/23 04:12:15;;;;;;;11.77;7.37;;;11.20;88.10;;;;;;5055515;28;20028;-83
2022/09/23 04:14:41;;;;;;;11.37;6.83;;;11.20;88.20;;;;;;5071553;28;20036;-83
2022/09/23 04:17:07;;;;;;;9.70;6.90;;;11.20;88.30;;;;;;5071886;28;20025;-83
2022/09/23 04:19:33;;;;;;;9.90;7.53;;;11.20;88.40;;;;;;5073049;28;20012;-82
2022/09/23 04:21:58;;;;;;;13.83;7.93;;;11.20;88.50;;;;;;5090467;28;20021;-81
2022/09/23 04:24:24;;;;;;;13.70;7.67;;;11.20;88.60;;;;;;5072454;28;20070;-82
2022/09/23 04:26:55;;;;;;;12.17;7.53;;;11.20;88.70;;;;;;5073017;28;20023;-83
2022/09/23 04:29:22;;;;;;;12.30;7.37;;;11.10;88.80;;;;;;5074014;28;20044;-82
2022/09/23 04:31:48;;;;;;;13.70;7.70;;;11.20;88.90;;;;;;5072776;28;20052;-82
2022/09/23 04:34:16;;;;;;;12.70;7.40;;;11.20;89.00;;;;;;5073005;28;20052;-82
2022/09/23 04:36:46;;;;;;;11.47;7.13;;;11.20;89.00;;;;;;5074535;28;20035;-82
2022/09/23 04:39:13;;;;;;;11.37;6.90;;;11.20;89.10;;;;;;5072699;28;20095;-81
2022/09/23 04:41:39;;;;;;;11.93;7.17;;;11.00;89.00;;;;;;5072030;28;20112;-81
2022/09/23 04:44:05;;;;;;;12.87;7.17;;;11.20;89.20;;;;;;5073718;28;20024;-81
2022/09/23 04:46:31;;;;;;;14.77;6.63;;;11.20;89.30;;;;;;5055810;28;20040;-81
2022/09/23 04:48:57;;;;;;;10.70;7.13;;;11.20;89.40;;;;;;5072639;28;20028;-82
2022/09/23 04:51:24;;;;;;;12.27;7.10;;;11.20;89.40;;;;;;5072228;28;20067;-82
2022/09/23 04:53:51;;;;;;;11.47;7.00;;;11.20;90.00;;;;;;5075083;28;20040;-82
2022/09/23 04:56:23;;;;;;;13.13;7.30;;;11.20;89.50;;;;;;5049080;28;20108;-82
2022/09/23 04:58:49;;;;;;;13.90;7.23;;;11.10;89.60;;;;;;5080274;28;20038;-82
2022/09/23 05:01:24;;;;;;;14.80;6.80;;;11.20;89.60;;;;;;5084107;28;20166;-82
2022/09/23 05:03:51;;;;;;;11.50;7.47;;;11.20;89.70;;;;;;5083920;28;20025;-81
2022/09/23 05:06:19;;;;;;;11.03;6.40;;;11.20;89.80;;;;;;5066786;28;20016;-82
2022/09/23 05:08:53;;;;;;;14.23;7.90;;;11.20;89.90;;;;;;5065675;28;20074;-82
2022/09/23 05:11:20;;;;;;;16.50;7.13;;;11.20;90.00;;;;;;5089567;22;20125;-78
2022/09/23 05:13:50;;;;;;;16.23;7.33;;;11.20;89.90;;;;;;5057951;28;20059;-78
2022/09/23 05:16:16;;;;;;;13.40;7.53;;;11.20;89.90;;;;;;5061342;28;20031;-78
2022/09/23 05:18:44;;;;;;;17.73;7.73;;;11.20;89.90;;;;;;5065716;28;20025;-78
2022/09/23 05:21:11;;;;;;;15.50;7.40;;;11.20;89.90;;;;;;5029933;28;20457;-78
2022/09/23 05:23:36;;;;;;;14.57;7.00;;;11.20;90.00;;;;;;5059866;28;20017;-78
2022/09/23 05:26:05;;;;;;;16.60;7.53;;;11.20;90.00;;;;;;5063405;28;20035;-78
2022/09/23 05:28:32;;;;;;;16.93;8.37;;;11.20;90.00;;;;;;5062046;28;20020;-78
2022/09/23 05:31:13;;;;;;;15.27;8.90;;;11.20;90.10;;;;;;5061067;28;20029;-78
2022/09/23 05:33:39;;;;;;;15.53;7.60;;;11.20;90.10;;;;;;5060273;28;20108;-78
2022/09/23 05:36:06;;;;;;;13.53;7.43;;;11.20;90.10;;;;;;5060560;28;20033;-77
2022/09/23 05:38:31;;;;;;;12.43;6.40;;;11.20;90.10;;;;;;5071370;28;20063;-78
2022/09/23 05:40:59;;;;;;;20.20;8.60;;;11.20;90.20;;;;;;5046735;28;20446;-78
2022/09/23 05:43:25;;;;;;;16.17;6.47;;;11.20;90.20;;;;;;5032230;28;20057;-78
2022/09/23 05:45:51;;;;;;;22.83;7.83;;;11.30;90.20;;;;;;5054161;28;20063;-78
2022/09/23 05:48:17;;;;;;;15.07;7.63;;;11.20;90.30;;;;;;5054317;28;20049;-78
2022/09/23 05:50:50;;;;;;;13.57;7.20;;;11.30;90.30;;;;;;5041329;28;20148;-78
2022/09/23 05:53:16;;;;;;;15.17;7.53;;;11.30;90.30;;;;;;5071503;28;20120;-78
2022/09/23 05:55:43;;;;;;;16.67;8.37;;;11.30;90.30;;;;;;5069838;28;20060;-79
2022/09/23 05:58:09;;;;;;;12.57;6.47;;;11.30;90.30;;;;;;5054911;28;20409;-78
2022/09/23 06:00:34;;;;;;;11.83;6.87;;;11.40;90.40;;;;;;5073064;28;20059;-78
2022/09/23 06:03:00;;;;;;;15.00;7.25;;;11.40;90.40;;;;;;5054680;28;20132;-78
2022/09/23 06:05:26;;;;;;;15.03;6.87;;;11.40;90.40;;;;;;5037959;28;20032;-78
2022/09/23 06:07:51;;;;;;;17.52;7.25;;;11.40;90.40;;;;;;5074045;28;20040;-79
2022/09/23 06:10:17;;;;;;;11.30;6.20;;;11.40;90.40;;;;;;5058876;28;20067;-77
2022/09/23 06:12:43;;;;;;;16.40;6.90;;;11.50;90.40;;;;;;5074851;28;20080;-78
2022/09/23 06:15:10;;;;;;;12.37;6.40;;;11.50;90.40;;;;;;5075319;28;20060;-79
2022/09/23 06:17:36;;;;;;;12.50;6.43;;;11.50;90.40;;;;;;5058798;28;20105;-79
2022/09/23 06:20:02;;;;;;;11.17;6.00;;;11.50;90.40;;;;;;5041814;28;20543;-78
2022/09/23 06:22:28;;;;;;;25.50;7.37;;;11.60;90.40;;;;;;5075311;28;20361;-78
2022/09/23 06:24:53;;;;;;;14.80;6.93;;;11.60;90.50;;;;;;5074927;28;20036;-79
2022/09/23 06:27:19;;;;;;;15.57;6.53;;;11.60;90.40;;;;;;5041710;28;20040;-79
2022/09/23 06:29:44;;;;;;;13.27;6.80;;;11.70;90.40;;;;;;5058094;28;20036;-79
2022/09/23 06:32:10;;;;;;;14.63;7.33;;;11.70;90.30;;;;;;5058218;28;20048;-78
2022/09/23 06:34:36;;;;;;;13.55;6.43;;;11.80;90.40;;;;;;5057855;28;20055;-79
2022/09/23 06:37:01;;;;;;;11.32;5.80;;;11.70;90.30;;;;;;5074951;28;20043;-79
2022/09/23 06:39:28;;;;;;;18.63;6.85;;;11.80;90.30;;;;;;5058481;28;20436;-79
2022/09/23 06:41:54;;;;;;;11.27;6.55;;;11.70;90.20;;;;;;5074539;28;20115;-79
2022/09/23 06:44:20;;;;;;;13.00;6.50;;;11.90;90.20;;;;;;5054649;28;20116;-79
2022/09/23 06:46:45;;;;;;;23.30;6.67;;;11.90;90.20;;;;;;5054951;28;20041;-78
2022/09/23 06:49:11;;;;;;;10.80;6.63;;;11.90;90.20;;;;;;5058685;28;20041;-79
2022/09/23 06:51:38;;;;;;;9.38;5.78;;;12.00;90.20;;;;;;5055119;28;20044;-78
2022/09/23 06:54:03;;;;;;;15.20;6.95;;;12.00;90.20;;;;;;5046261;28;20079;-79
2022/09/23 06:56:29;;;;;;;13.18;6.40;;;12.00;90.20;;;;;;5063302;28;20037;-78
2022/09/23 06:58:54;;;;;;;18.88;6.25;;;12.10;90.20;;;;;;5057621;28;20373;-79
2022/09/23 07:01:21;;;;;;;13.20;6.60;;;12.10;90.20;;;;;;5068957;28;20033;-79
2022/09/23 07:03:47;;;;;;;16.17;5.95;;;12.20;90.20;;;;;;5066486;28;20039;-78
2022/09/23 07:06:13;;;;;;;12.80;5.85;;;12.20;90.20;;;;;;5047854;28;20389;-79
2022/09/23 07:08:42;;;;;;;13.02;6.63;;;12.20;90.20;;;;;;5049091;28;20025;-78
2022/09/23 07:11:12;;;;;;;11.52;6.57;;;12.30;90.20;;;;;;5072610;28;20106;-78
2022/09/23 07:13:39;;;;;;;13.25;6.30;;;12.30;90.10;;;;;;5058140;28;20024;-79
2022/09/23 07:16:05;;;;;;;11.45;5.75;;;12.40;90.10;;;;;;5074113;28;20020;-79
2022/09/23 07:18:32;;;;;;;12.27;6.32;;;12.30;90.10;;;;;;5057388;28;20499;-79
2022/09/23 07:21:07;;;;;;;14.45;6.45;;;12.40;90.00;;;;;;5074231;28;20135;-79
2022/09/23 07:23:33;;;;;;;11.73;6.82;;;12.50;90.00;;;;;;5075452;28;20389;-78
2022/09/23 07:25:58;;;;;;;9.75;5.95;;;12.50;89.90;;;;;;5074168;28;20028;-79
2022/09/23 07:28:26;;;;;;;12.13;6.75;;;12.60;89.90;;;;;;5073468;28;20025;-79
2022/09/23 07:30:52;;;;;;;25.00;6.75;;;12.60;89.70;;;;;;5057550;28;20040;-78
2022/09/23 07:33:18;;;;;;;13.50;6.05;;;12.60;89.50;;;;;;5057111;28;20029;-79
2022/09/23 07:35:44;;;;;;;13.73;5.95;;;12.70;89.50;;;;;;5074073;28;20024;-79
2022/09/23 07:38:10;;;;;;;16.90;5.88;;;12.70;89.50;;;;;;5056833;28;20032;-79
2022/09/23 07:40:37;;;;;;;14.77;5.97;;;12.70;89.30;;;;;;5075376;28;20028;-79
2022/09/23 07:43:04;;;;;;;13.00;6.47;;;12.80;89.30;;;;;;5073422;28;20054;-79
2022/09/23 07:45:32;;;;;;;12.07;5.45;;;12.80;89.20;;;;;;5057354;28;20033;-79
2022/09/23 07:47:59;;;;;;;9.70;5.55;;;12.90;89.30;;;;;;5075129;28;20060;-79
2022/09/23 07:50:24;;;;;;;10.10;5.22;;;13.00;89.30;;;;;;5057175;28;20037;-79
2022/09/23 07:52:51;;;;;;;9.20;5.40;;;13.00;89.30;;;;;;5074741;28;20126;-78
2022/09/23 07:55:18;;;;;;;11.18;6.10;;;13.10;89.30;;;;;;5073869;28;20078;-79
2022/09/23 07:57:44;;;;;;;9.05;5.55;;;13.20;89.20;;;;;;5074614;28;20542;-80
2022/09/23 08:00:12;;;;;;;11.40;5.25;;;13.30;89.10;;;;;;5073781;28;20036;-79
2022/09/23 08:02:38;;;;;;;10.07;4.88;;;13.30;88.80;;;;;;5073508;28;20515;-79
2022/09/23 08:05:05;;;;;;;10.82;4.53;;;13.40;88.60;;;;;;5064180;28;20497;-79
2022/09/23 08:07:33;;;;;;;7.75;5.35;;;13.50;88.30;;;;;;5055805;28;20064;-79
2022/09/23 08:09:59;;;;;;;9.50;4.93;;;13.50;88.00;;;;;;5053196;28;20053;-79
2022/09/23 08:12:26;;;;;;;7.88;4.63;;;13.60;87.80;;;;;;5053106;28;20669;-79
2022/09/23 08:14:52;;;;;;;9.32;4.32;;;13.70;87.70;;;;;;5063296;28;20111;-79
2022/09/23 08:17:17;;;;;;;8.80;4.97;;;13.80;87.40;;;;;;5056223;28;20120;-79
2022/09/23 08:19:43;;;;;;;13.63;5.32;;;13.90;87.10;;;;;;5073375;28;20384;-79
2022/09/23 08:22:10;;;;;;;7.80;4.38;;;14.00;86.70;;;;;;5056462;28;20033;-79
2022/09/23 08:24:35;;;;;;;9.57;4.95;;;14.10;86.30;;;;;;5074201;28;20056;-79
2022/09/23 08:27:01;;;;;;;8.68;4.85;;;14.20;86.00;;;;;;5055965;28;20052;-79
2022/09/23 08:29:27;;;;;;;9.45;3.95;;;14.30;85.70;;;;;;5072495;28;20028;-79
2022/09/23 08:31:53;;;;;;;8.68;4.85;;;14.40;85.40;;;;;;5074096;28;20037;-79
2022/09/23 08:34:20;;;;;;;9.45;5.13;;;14.50;85.20;;;;;;5072469;28;20035;-79
2022/09/23 08:36:46;;;;;;;7.70;4.53;;;14.60;84.80;;;;;;5056347;28;20025;-80
2022/09/23 08:39:16;;;;;;;9.00;5.47;;;14.70;84.40;;;;;;5072623;28;20036;-79
2022/09/23 08:42:14;;;;;;;10.75;5.35;;;14.70;84.00;;;;;;5055728;28;20496;-79
2022/09/23 08:44:46;;;;;;;7.75;4.85;;;14.80;83.70;;;;;;5072741;28;20488;-79
2022/09/23 08:47:20;;;;;;;6.78;4.03;;;14.90;83.40;;;;;;5074053;28;20020;-79
2022/09/23 08:50:17;;;;;;;7.45;4.18;;;15.00;83.20;;;;;;5072407;28;20401;-78
2022/09/23 08:55:46;;;;;;;8.07;3.92;;;15.20;82.40;;;;;;5052690;28;20508;-80
2022/09/23 08:58:42;;;;;;;8.65;4.20;;;15.30;82.20;;;;;;5052838;28;20025;-81
2022/09/23 09:01:27;;;;;;;9.48;4.65;;;15.40;82.00;;;;;;5053795;28;20416;-81
2022/09/23 09:03:59;;;;;;;;;;;15.50;81.90;;;;;;5053039;28;20055;-80
2022/09/23 09:06:47;;;;;;;8.30;4.15;;;15.60;81.70;;;;;;5052552;28;20348;-83
2022/09/23 09:09:25;;;;;;;7.10;4.20;;;15.70;81.60;;;;;;5052361;28;20021;-84
2022/09/23 09:11:59;;;;;;;7.85;4.28;;;15.80;81.40;;;;;;5052802;28;20027;-84
2022/09/23 09:14:34;;;;;;;7.78;3.92;;;15.90;81.20;;;;;;5052555;28;20111;-84
2022/09/23 09:17:12;;;;;;;7.50;3.88;;;16.00;81.10;;;;;;5035865;28;20027;-84
2022/09/23 09:19:47;;;;;;;10.45;4.07;;;16.10;80.60;;;;;;5032514;28;20105;-84
2022/09/23 09:22:18;;;;;;;6.60;3.70;;;16.30;80.00;;;;;;5036163;28;20436;-85
2022/09/23 09:24:47;;;;;;;10.43;3.70;;;16.40;79.60;;;;;;5035923;28;20489;-85
2022/09/23 09:27:13;;;;;;;6.18;3.70;;;16.50;79.00;;;;;;5035889;28;20028;-85
2022/09/23 09:29:43;;;;;;;6.70;3.88;;;16.60;78.60;;;;;;5052294;28;20021;-84
2022/09/23 09:32:45;;;;;;;8.68;3.75;;;16.80;78.30;;;;;;5047165;28;20029;-85
2022/09/23 09:35:36;;;;;;;6.68;3.90;;;16.90;77.50;;;;;;5035808;28;20013;-85
2022/09/23 09:38:03;;;;;;;8.18;3.40;;;17.10;77.00;;;;;;5053174;28;20036;-80
2022/09/23 09:40:28;;;;;;;9.15;3.55;;;17.10;76.50;;;;;;5019052;28;20028;-81
2022/09/23 09:42:54;;;;;;;7.50;3.90;;;17.30;75.80;;;;;;5034829;28;20033;-81
2022/09/23 09:45:37;;;;;;;7.40;3.63;;;17.40;75.30;;;;;;5019003;28;20033;-80
2022/09/23 09:48:16;;;;;;;10.85;4.13;;;17.50;74.80;;;;;;5035644;28;20075;-85
2022/09/23 09:50:51;;;;;;;8.32;3.88;;;17.60;74.40;;;;;;5035157;28;20025;-85
2022/09/23 09:53:22;;;;;;;6.07;3.28;;;17.60;74.60;;;;;;5035163;28;20029;-84
2022/09/23 09:55:57;;;;;;;8.32;3.35;;;17.70;73.40;;;;;;5035377;28;20029;-81
2022/09/23 09:58:24;;;;;;;7.25;3.83;;;17.80;72.70;;;;;;5035216;28;20094;-85
2022/09/23 10:00:51;;;;;;;6.53;3.80;;;17.80;72.20;;;;;;5035323;28;20047;-80
2022/09/23 10:03:43;;;;;;;9.75;3.75;;;17.80;71.90;;;;;;5019025;28;20025;-85
2022/09/23 10:06:14;;;;;;;7.47;3.45;;;17.90;71.80;;;;;;5030410;28;20558;-85
2022/09/23 10:08:46;;;;;;;7.50;3.85;;;18.20;71.90;;;;;;5028388;28;20390;-84
2022/09/23 10:11:15;;;;;;;7.13;3.47;;;18.40;72.00;;;;;;5019422;28;20025;-85
2022/09/23 10:14:01;;;;;;;8.73;3.78;;;18.60;71.70;;;;;;5053270;28;20028;-82
2022/09/23 10:16:30;;;;;;;4.68;2.97;;;18.90;71.40;;;;;;5038169;28;20116;-80
2022/09/23 10:18:57;;;;;;;9.32;3.35;;;19.20;70.90;;;;;;5051699;28;20144;-81
2022/09/23 10:21:24;;;;;;;5.75;3.30;;;19.50;70.10;;;;;;5051683;28;20067;-80
2022/09/23 10:23:53;;;;;;;5.18;3.30;;;19.80;69.50;;;;;;5035221;28;20040;-81
2022/09/23 10:26:41;;;;;;;7.30;2.65;;;20.00;69.00;;;;;;5035569;28;20032;-80
2022/09/23 10:29:30;;;;;;;7.07;3.22;;;20.20;67.90;;;;;;5052980;28;20025;-81
2022/09/23 10:32:18;;;;;;;6.60;2.60;;;20.40;67.00;;;;;;5050306;28;20040;-80
2022/09/23 10:34:47;;;;;;;5.00;2.65;;;20.50;65.90;;;;;;5025804;28;20037;-80
2022/09/23 10:37:21;;;;;;;6.53;2.83;;;20.60;65.50;;;;;;5015548;28;20021;-80
2022/09/23 10:48:58;;;;;;;5.93;2.53;;;21.30;62.80;;;;;;5011464;28;20101;-81
2022/09/23 10:51:43;;;;;;;6.05;3.22;;;21.50;62.30;;;;;;5009858;28;20064;-81
2022/09/23 10:54:46;;;;;;;7.95;2.85;;;21.50;61.70;;;;;;5017597;28;20501;-80
2022/09/23 10:57:40;;;;;;;4.47;2.65;;;21.50;60.80;;;;;;5036311;28;20417;-81
2022/09/23 11:00:21;;;;;;;5.82;2.45;;;21.40;60.70;;;;;;4991669;28;20033;-81
2022/09/23 11:02:59;;;;;;;9.45;3.33;;;21.30;60.50;;;;;;5035283;28;20059;-81
2022/09/23 11:05:36;;;;;;;5.45;2.60;;;21.20;59.60;;;;;;5035017;28;20030;-81
2022/09/23 11:08:26;;;;;;;5.28;2.83;;;21.00;59.40;;;;;;5018468;28;20029;-80
2022/09/23 11:11:10;;;;;;;8.80;3.05;;;20.90;59.50;;;;;;5022726;28;20436;-80
2022/09/23 11:13:51;;;;;;;5.75;2.78;;;20.80;59.60;;;;;;5034626;28;20037;-80
2022/09/23 11:16:22;;;;;;;8.13;3.20;;;20.70;59.70;;;;;;5034415;28;20355;-79
2022/09/23 11:18:56;;;;;;;5.60;3.33;;;20.50;59.70;;;;;;5034332;28;20017;-80
2022/09/23 11:21:48;;;;;;;6.55;3.47;;;20.40;60.00;;;;;;5035057;28;20057;-77
2022/09/23 11:24:38;;;;;;;6.75;3.88;;;20.30;60.20;;;;;;5018229;28;20049;-77
2022/09/23 11:27:29;;;;;;;4.38;2.60;;;20.20;60.20;;;;;;5034688;28;20025;-76
2022/09/23 11:30:18;;;;;;;5.97;3.20;;;20.20;60.80;;;;;;5049120;28;20040;-77
2022/09/23 11:33:06;;;;;;;4.93;2.95;;;20.10;61.00;;;;;;5034472;28;20031;-80
2022/09/23 11:35:40;;;;;;;7.25;3.08;;;20.20;61.20;;;;;;5029027;28;20040;-80
2022/09/23 11:38:23;;;;;;;7.47;3.55;;;20.10;60.90;;;;;;5055622;28;20531;-80
2022/09/23 11:40:54;;;;;;;6.55;3.47;;;20.00;61.10;;;;;;5037522;28;20025;-81
2022/09/23 11:43:28;;;;;;;7.55;3.35;;;20.00;61.30;;;;;;5037419;28;20013;-81
2022/09/23 11:45:59;;;;;;;7.90;3.85;;;20.00;61.40;;;;;;5037361;28;20040;-81
2022/09/23 11:48:34;;;;;;;6.25;3.13;;;20.10;61.40;;;;;;5037208;28;20060;-81
2022/09/23 11:51:12;;;;;;;8.63;2.95;;;20.00;61.30;;;;;;5036835;28;20017;-81
2022/09/23 11:54:00;;;;;;;8.05;3.63;;;20.00;61.20;;;;;;5050302;28;20053;-81
2022/09/23 11:56:57;;;;;;;5.50;3.05;;;20.00;61.20;;;;;;5035182;28;20020;-81
2022/09/23 11:59:23;;;;;;;7.05;2.88;;;20.00;61.40;;;;;;5019509;28;20037;-81
2022/09/23 12:01:55;;;;;;;6.38;3.38;;;20.00;61.50;;;;;;5017412;28;20192;-80
2022/09/23 12:04:34;;;;;;;8.57;3.85;;;20.10;61.60;;;;;;5016426;28;20026;-81
2022/09/23 12:07:07;;;;;;;7.93;3.08;;;20.00;61.30;;;;;;5017336;28;20045;-81
2022/09/23 12:09:59;;;;;;;8.23;3.08;;;20.10;61.30;;;;;;5035567;28;20119;-81
2022/09/23 12:12:52;;;;;;;6.38;3.83;;;20.20;61.20;;;;;;5017124;28;20052;-81
2022/09/23 12:15:38;;;;;;;6.90;3.13;;;20.20;61.20;;;;;;5034853;28;20136;-80
2022/09/23 12:18:23;;;;;;;8.02;3.20;;;20.30;61.10;;;;;;5016939;28;20273;-80
2022/09/23 12:21:05;;;;;;;7.20;3.42;;;20.40;61.00;;;;;;5016936;28;20071;-79
2022/09/23 12:23:54;;;;;;;8.88;4.35;;;20.50;61.00;;;;;;5016908;28;20028;-81
2022/09/23 12:26:24;;;;;;;6.38;4.03;;;20.60;60.90;;;;;;5008975;28;20033;-81
2022/09/23 12:28:54;;;;;;;7.75;3.90;;;20.80;60.80;;;;;;5026853;28;20389;-81
2022/09/23 12:31:29;;;;;;;8.23;4.47;;;20.90;61.10;;;;;;5036486;28;20032;-81
2022/09/23 12:34:00;;;;;;;8.07;4.07;;;21.00;60.60;;;;;;5036460;28;20025;-81
2022/09/23 12:36:33;;;;;;;10.70;3.53;;;21.20;60.30;;;;;;5036356;28;20473;-81
2022/09/23 12:39:21;;;;;;;11.43;5.15;;;21.30;60.20;;;;;;5036388;28;20495;-81
2022/09/23 12:41:49;;;;;;;7.57;3.88;;;21.50;59.80;;;;;;5035683;28;20116;-81
2022/09/23 12:44:35;;;;;;;7.47;4.80;;;21.60;59.60;;;;;;5036501;28;20056;-80
2022/09/23 12:47:13;;;;;;;9.80;4.40;;;21.60;59.10;;;;;;5036346;28;20021;-81
2022/09/23 12:49:39;;;;;;;10.45;4.40;;;21.60;59.10;;;;;;5036272;28;20037;-80
2022/09/23 12:52:16;;;;;;;10.27;4.90;;;21.60;59.60;;;;;;5003916;28;20078;-80
2022/09/23 12:54:47;;;;;;;7.43;4.38;;;21.60;58.90;;;;;;5053631;28;20056;-81
2022/09/23 12:57:33;;;;;;;7.75;4.85;;;21.50;58.70;;;;;;5035685;28;20021;-80
2022/09/23 13:00:05;;;;;;;9.23;4.63;;;21.50;58.60;;;;;;5053836;28;20074;-81
2022/09/23 13:02:38;;;;;;;7.35;4.03;;;21.40;58.60;;;;;;5036349;28;20021;-81
2022/09/23 13:07:57;;;;;;;9.57;4.75;;;21.30;58.50;;;;;;5053957;28;20405;-81
2022/09/23 13:10:31;;;;;;;9.60;4.93;;;21.30;58.40;;;;;;5035788;28;20024;-81
2022/09/23 13:12:57;;;;;;;;;;;21.20;58.50;;;;;;5036219;28;20060;-80
2022/09/23 13:15:35;;;;;;;6.68;3.70;;;21.20;58.50;;;;;;5035909;28;19904;-81
2022/09/23 13:18:21;;;;;;;8.25;4.32;;;21.10;58.60;;;;;;5035571;28;20028;-81
2022/09/23 13:20:52;;;;;;;7.70;4.25;;;21.10;58.80;;;;;;5032825;28;20538;-81
2022/09/23 13:23:23;;;;;;;9.35;4.18;;;21.10;58.90;;;;;;5035511;28;20071;-81
2022/09/23 13:25:58;;;;;;;12.80;4.75;;;21.10;59.00;;;;;;5035611;28;20025;-80